createdAt,value
2016-02-12T00:00:02.800Z,13.58
2016-02-12T00:01:02.787Z,13.58
2016-02-12T00:02:02.757Z,13.63
2016-02-12T00:03:02.745Z,13.54
2016-02-12T00:04:02.717Z,13.56
2016-02-12T00:05:02.704Z,13.59
2016-02-12T00:06:02.660Z,13.59
2016-02-12T00:07:02.646Z,13.59
2016-02-12T00:08:02.618Z,13.61
2016-02-12T00:09:02.778Z,13.56
2016-02-12T00:10:02.562Z,13.62
2016-02-12T00:11:02.540Z,13.56
2016-02-12T00:12:02.514Z,13.51
2016-02-12T00:13:02.487Z,13.55
2016-02-12T00:14:02.489Z,13.44
2016-02-12T00:15:02.445Z,13.61
2016-02-12T00:16:02.416Z,13.54
2016-02-12T00:17:02.420Z,13.56
2016-02-12T00:18:02.390Z,13.49
2016-02-12T00:19:02.362Z,13.46
2016-02-12T00:20:02.319Z,13.52
2016-02-12T00:21:02.290Z,13.52
2016-02-12T00:22:02.121Z,13.52
2016-02-12T00:23:02.248Z,13.56
2016-02-12T00:24:02.225Z,13.52
2016-02-12T00:25:02.170Z,13.54
2016-02-12T00:26:02.160Z,13.61
2016-02-12T00:27:02.104Z,13.49
2016-02-12T00:28:02.079Z,13.51
2016-02-12T00:29:02.041Z,13.59
2016-02-12T00:30:02.024Z,13.46
2016-02-12T00:31:01.991Z,13.58
2016-02-12T00:32:01.990Z,13.51
2016-02-12T00:33:01.926Z,13.47
2016-02-12T00:34:01.911Z,13.43
2016-02-12T00:35:01.897Z,13.54
2016-02-12T00:36:01.867Z,13.51
2016-02-12T00:37:01.841Z,13.46
2016-02-12T00:38:01.889Z,13.51
2016-02-12T00:39:01.812Z,13.43
2016-02-12T00:40:01.751Z,13.49
2016-02-12T00:41:01.770Z,13.51
2016-02-12T00:42:01.692Z,13.49
2016-02-12T00:43:01.677Z,13.44
2016-02-12T00:44:01.679Z,13.51
2016-02-12T00:45:01.666Z,13.49
2016-02-12T00:46:01.591Z,13.55
2016-02-12T00:47:01.593Z,13.54
2016-02-12T00:48:01.579Z,13.58
2016-02-12T00:49:01.536Z,13.49
2016-02-12T00:50:01.523Z,13.47
2016-02-12T00:51:01.495Z,13.44
2016-02-12T00:52:01.450Z,13.43
2016-02-12T00:53:01.437Z,13.51
2016-02-12T00:54:01.410Z,13.52
2016-02-12T00:55:01.412Z,13.54
2016-02-12T00:56:01.368Z,13.46
2016-02-12T00:57:01.371Z,13.52
2016-02-12T00:58:01.311Z,13.46
2016-02-12T00:59:01.299Z,13.51
2016-02-12T01:00:01.270Z,13.44
2016-02-12T01:01:01.241Z,13.43
2016-02-12T01:02:01.229Z,13.52
2016-02-12T01:03:01.208Z,13.47
2016-02-12T01:04:01.180Z,13.52
2016-02-12T01:05:01.151Z,13.43
2016-02-12T01:06:01.420Z,13.47
2016-02-12T01:07:01.094Z,13.51
2016-02-12T01:08:01.081Z,13.44
2016-02-12T01:09:01.068Z,13.43
2016-02-12T01:10:01.024Z,13.47
2016-02-12T01:11:01.168Z,13.49
2016-02-12T01:12:01.001Z,13.46
2016-02-12T01:13:00.960Z,13.52
2016-02-12T01:14:00.947Z,13.49
2016-02-12T01:15:00.903Z,13.41
2016-02-12T01:16:00.905Z,13.51
2016-02-12T01:17:00.862Z,13.51
2016-02-12T01:18:00.848Z,13.49
2016-02-12T01:19:00.804Z,13.44
2016-02-12T01:20:00.792Z,13.56
2016-02-12T01:21:00.638Z,13.44
2016-02-12T01:22:00.766Z,13.56
2016-02-12T01:23:00.722Z,13.51
2016-02-12T01:24:00.694Z,13.46
2016-02-12T01:25:00.680Z,13.44
2016-02-12T01:26:00.637Z,13.44
2016-02-12T01:27:00.623Z,13.46
2016-02-12T01:28:00.610Z,13.46
2016-02-12T01:29:00.566Z,13.55
2016-02-12T01:30:00.554Z,13.43
2016-02-12T01:31:00.540Z,13.49
2016-02-12T01:32:00.513Z,13.47
2016-02-12T01:33:00.500Z,13.51
2016-02-12T01:34:00.455Z,13.52
2016-02-12T01:35:00.443Z,13.55
2016-02-12T01:36:00.416Z,13.43
2016-02-12T01:37:00.386Z,13.54
2016-02-12T01:38:00.358Z,13.55
2016-02-12T01:39:00.345Z,13.51
2016-02-12T01:40:00.320Z,13.46
2016-02-12T01:41:00.291Z,13.46
2016-02-12T01:42:00.263Z,13.52
2016-02-12T01:43:00.300Z,13.51
2016-02-12T01:44:00.208Z,13.52
2016-02-12T01:45:00.211Z,13.55
2016-02-12T01:46:00.167Z,13.46
2016-02-12T01:47:00.155Z,13.43
2016-02-12T01:48:00.125Z,13.51
2016-02-12T01:49:00.098Z,13.44
2016-02-12T01:50:00.069Z,13.47
2016-02-12T01:51:00.056Z,13.51
2016-02-12T01:52:00.044Z,13.52
2016-02-12T01:52:59.999Z,13.55
2016-02-12T01:54:00.002Z,13.43
2016-02-12T01:54:59.958Z,13.55
2016-02-12T01:55:59.929Z,13.54
2016-02-12T01:56:59.948Z,13.49
2016-02-12T01:57:59.904Z,13.55
2016-02-12T01:58:59.875Z,13.52
2016-02-12T01:59:59.847Z,13.51
2016-02-12T02:00:59.803Z,13.46
2016-02-12T02:01:59.821Z,13.52
2016-02-12T02:02:59.761Z,13.41
2016-02-12T02:03:59.747Z,13.47
2016-02-12T02:04:59.719Z,13.44
2016-02-12T02:05:59.692Z,13.51
2016-02-12T02:06:59.679Z,13.49
2016-02-12T02:07:59.870Z,13.51
2016-02-12T02:08:59.512Z,13.47
2016-02-12T02:09:59.625Z,13.51
2016-02-12T02:10:59.565Z,13.47
2016-02-12T02:11:59.567Z,13.46
2016-02-12T02:12:59.524Z,13.49
2016-02-12T02:13:59.513Z,13.47
2016-02-12T02:14:59.484Z,13.43
2016-02-12T02:15:59.455Z,13.51
2016-02-12T02:16:59.427Z,13.38
2016-02-12T02:17:59.413Z,13.47
2016-02-12T02:18:59.369Z,13.43
2016-02-12T02:19:59.357Z,13.47
2016-02-12T02:20:59.329Z,13.46
2016-02-12T02:21:59.299Z,13.51
2016-02-12T02:22:59.287Z,13.44
2016-02-12T02:23:59.274Z,13.47
2016-02-12T02:24:59.339Z,13.41
2016-02-12T02:25:59.263Z,13.44
2016-02-12T02:26:59.204Z,13.46
2016-02-12T02:27:59.175Z,13.49
2016-02-12T02:28:59.178Z,13.52
2016-02-12T02:29:59.165Z,13.44
2016-02-12T02:30:59.090Z,13.47
2016-02-12T02:31:59.076Z,13.46
2016-02-12T02:32:59.079Z,13.46
2016-02-12T02:33:59.035Z,13.4
2016-02-12T02:34:58.991Z,13.47
2016-02-12T02:35:58.994Z,13.49
2016-02-12T02:36:58.965Z,13.4
2016-02-12T02:37:58.920Z,13.43
2016-02-12T02:38:58.908Z,13.38
2016-02-12T02:39:58.881Z,13.44
2016-02-12T02:40:58.851Z,13.37
2016-02-12T02:41:58.839Z,13.46
2016-02-12T02:42:58.814Z,13.51
2016-02-12T02:43:58.785Z,13.4
2016-02-12T02:44:58.757Z,13.43
2016-02-12T02:45:58.744Z,13.47
2016-02-12T02:46:58.699Z,13.38
2016-02-12T02:47:58.671Z,13.38
2016-02-12T02:48:58.660Z,13.44
2016-02-12T02:49:58.632Z,13.46
2016-02-12T02:50:58.619Z,13.47
2016-02-12T02:51:58.591Z,13.44
2016-02-12T02:52:58.563Z,13.47
2016-02-12T02:53:58.596Z,13.47
2016-02-12T02:54:58.506Z,13.43
2016-02-12T02:55:58.493Z,13.44
2016-02-12T02:56:58.479Z,13.41
2016-02-12T02:57:58.451Z,13.43
2016-02-12T02:58:58.423Z,13.4
2016-02-12T02:59:58.474Z,13.43
2016-02-12T03:00:58.367Z,13.3
2016-02-12T03:01:58.355Z,13.37
2016-02-12T03:02:58.325Z,13.37
2016-02-12T03:03:58.313Z,13.33
2016-02-12T03:04:58.550Z,13.32
2016-02-12T03:05:58.256Z,13.3
2016-02-12T03:06:58.227Z,13.37
2016-02-12T03:07:58.199Z,13.33
2016-02-12T03:08:58.172Z,13.36
2016-02-12T03:09:58.159Z,13.37
2016-02-12T03:10:58.131Z,13.33
2016-02-12T03:11:58.107Z,13.37
2016-02-12T03:12:58.078Z,13.36
2016-02-12T03:13:58.050Z,13.29
2016-02-12T03:14:58.022Z,13.32
2016-02-12T03:15:58.009Z,13.4
2016-02-12T03:16:57.981Z,13.38
2016-02-12T03:17:57.969Z,13.37
2016-02-12T03:18:57.956Z,13.25
2016-02-12T03:19:57.911Z,13.33
2016-02-12T03:20:57.883Z,13.25
2016-02-12T03:21:57.855Z,13.3
2016-02-12T03:22:57.841Z,13.24
2016-02-12T03:23:57.829Z,13.33
2016-02-12T03:24:57.800Z,13.36
2016-02-12T03:25:57.787Z,13.37
2016-02-12T03:26:57.775Z,13.37
2016-02-12T03:27:57.730Z,13.38
2016-02-12T03:28:57.717Z,13.37
2016-02-12T03:29:57.673Z,13.38
2016-02-12T03:30:57.644Z,13.36
2016-02-12T03:31:57.631Z,13.37
2016-02-12T03:32:57.618Z,13.29
2016-02-12T03:33:57.590Z,13.25
2016-02-12T03:34:57.563Z,13.37
2016-02-12T03:35:57.518Z,13.29
2016-02-12T03:36:57.505Z,13.24
2016-02-12T03:37:57.478Z,13.32
2016-02-12T03:38:57.464Z,13.37
2016-02-12T03:39:57.436Z,13.37
2016-02-12T03:40:57.455Z,13.32
2016-02-12T03:41:57.394Z,13.32
2016-02-12T03:42:57.355Z,13.3
2016-02-12T03:43:57.342Z,13.32
2016-02-12T03:44:57.329Z,13.38
2016-02-12T03:45:57.315Z,13.32
2016-02-12T03:46:57.303Z,13.33
2016-02-12T03:47:57.242Z,13.25
2016-02-12T03:48:57.214Z,13.29
2016-02-12T03:49:57.185Z,13.3
2016-02-12T03:50:57.173Z,13.38
2016-02-12T03:51:57.159Z,13.4
2016-02-12T03:52:57.131Z,13.33
2016-02-12T03:53:57.103Z,13.36
2016-02-12T03:54:57.090Z,13.3
2016-02-12T03:55:57.078Z,13.32
2016-02-12T03:56:57.033Z,13.33
2016-02-12T03:57:57.005Z,13.37
2016-02-12T03:58:56.976Z,13.37
2016-02-12T03:59:56.963Z,13.33
2016-02-12T04:00:56.919Z,13.37
2016-02-12T04:01:57.171Z,13.25
2016-02-12T04:02:56.878Z,13.36
2016-02-12T04:03:56.865Z,13.3
2016-02-12T04:04:56.836Z,13.38
2016-02-12T04:05:56.823Z,13.3
2016-02-12T04:06:56.795Z,13.33
2016-02-12T04:07:56.750Z,13.32
2016-02-12T04:08:56.738Z,13.29
2016-02-12T04:09:56.756Z,13.3
2016-02-12T04:10:56.681Z,13.27
2016-02-12T04:11:56.502Z,13.32
2016-02-12T04:12:56.645Z,13.36
2016-02-12T04:13:56.632Z,13.25
2016-02-12T04:14:56.620Z,13.27
2016-02-12T04:15:56.575Z,13.33
2016-02-12T04:16:56.548Z,13.3
2016-02-12T04:17:56.519Z,13.36
2016-02-12T04:18:56.490Z,13.32
2016-02-12T04:19:56.480Z,13.32
2016-02-12T04:20:56.450Z,13.32
2016-02-12T04:21:56.422Z,13.3
2016-02-12T04:22:56.394Z,13.25
2016-02-12T04:23:56.380Z,13.33
2016-02-12T04:24:56.352Z,13.3
2016-02-12T04:25:56.324Z,13.32
2016-02-12T04:26:56.310Z,13.29
2016-02-12T04:27:56.282Z,13.25
2016-02-12T04:28:56.255Z,13.32
2016-02-12T04:29:56.243Z,13.29
2016-02-12T04:30:56.229Z,13.29
2016-02-12T04:31:56.184Z,13.25
2016-02-12T04:32:56.173Z,13.27
2016-02-12T04:33:56.128Z,13.36
2016-02-12T04:34:56.115Z,13.3
2016-02-12T04:35:56.103Z,13.22
2016-02-12T04:36:56.073Z,13.3
2016-02-12T04:37:56.046Z,13.32
2016-02-12T04:38:56.018Z,13.25
2016-02-12T04:39:55.990Z,13.32
2016-02-12T04:40:55.962Z,13.32
2016-02-12T04:41:55.950Z,13.3
2016-02-12T04:42:55.937Z,13.3
2016-02-12T04:43:55.909Z,13.29
2016-02-12T04:44:55.880Z,13.25
2016-02-12T04:45:55.869Z,13.36
2016-02-12T04:46:55.824Z,13.29
2016-02-12T04:47:56.046Z,13.38
2016-02-12T04:48:55.768Z,13.24
2016-02-12T04:49:55.755Z,13.27
2016-02-12T04:50:55.727Z,13.24
2016-02-12T04:51:55.714Z,13.21
2016-02-12T04:52:55.747Z,13.24
2016-02-12T04:53:55.672Z,13.29
2016-02-12T04:54:55.627Z,13.27
2016-02-12T04:55:55.616Z,13.27
2016-02-12T04:56:55.571Z,13.27
2016-02-12T04:57:55.573Z,13.25
2016-02-12T04:58:55.545Z,13.27
2016-02-12T04:59:55.513Z,13.25
2016-02-12T05:00:55.501Z,13.27
2016-02-12T05:01:55.457Z,13.25
2016-02-12T05:02:55.429Z,13.29
2016-02-12T05:03:55.415Z,13.27
2016-02-12T05:04:55.387Z,13.32
2016-02-12T05:05:55.374Z,13.3
2016-02-12T05:06:55.362Z,13.25
2016-02-12T05:07:55.333Z,13.29
2016-02-12T05:08:55.304Z,13.21
2016-02-12T05:09:55.276Z,13.21
2016-02-12T05:10:55.247Z,13.22
2016-02-12T05:11:55.223Z,13.3
2016-02-12T05:12:55.211Z,13.22
2016-02-12T05:13:55.182Z,13.24
2016-02-12T05:14:55.154Z,13.27
2016-02-12T05:15:55.140Z,13.22
2016-02-12T05:16:55.112Z,13.22
2016-02-12T05:17:55.084Z,13.32
2016-02-12T05:18:55.056Z,13.25
2016-02-12T05:19:55.027Z,13.25
2016-02-12T05:20:55.015Z,13.22
2016-02-12T05:21:54.985Z,13.27
2016-02-12T05:22:54.975Z,13.25
2016-02-12T05:23:54.930Z,13.25
2016-02-12T05:24:54.902Z,13.27
2016-02-12T05:25:54.889Z,13.24
2016-02-12T05:26:54.860Z,13.29
2016-02-12T05:27:54.830Z,13.25
2016-02-12T05:28:54.819Z,13.24
2016-02-12T05:29:54.790Z,13.27
2016-02-12T05:30:54.777Z,13.22
2016-02-12T05:31:54.732Z,13.25
2016-02-12T05:32:54.719Z,13.24
2016-02-12T05:33:54.707Z,13.27
2016-02-12T05:34:54.679Z,13.29
2016-02-12T05:35:54.650Z,13.25
2016-02-12T05:36:54.621Z,13.29
2016-02-12T05:37:54.607Z,13.32
2016-02-12T05:38:54.580Z,13.25
2016-02-12T05:39:54.551Z,13.27
2016-02-12T05:40:54.529Z,13.24
2016-02-12T05:41:54.516Z,13.27
2016-02-12T05:42:54.471Z,13.25
2016-02-12T05:43:54.476Z,13.27
2016-02-12T05:44:54.650Z,13.21
2016-02-12T05:45:54.403Z,13.22
2016-02-12T05:46:54.390Z,13.25
2016-02-12T05:47:54.361Z,13.22
2016-02-12T05:48:54.349Z,13.15
2016-02-12T05:49:54.352Z,13.24
2016-02-12T05:50:54.308Z,13.22
2016-02-12T05:51:54.265Z,13.21
2016-02-12T05:52:54.251Z,13.17
2016-02-12T05:53:54.207Z,13.24
2016-02-12T05:54:54.178Z,13.27
2016-02-12T05:55:54.462Z,13.22
2016-02-12T05:56:54.137Z,13.22
2016-02-12T05:57:54.126Z,13.22
2016-02-12T05:58:54.082Z,13.21
2016-02-12T05:59:54.070Z,13.21
2016-02-12T06:00:54.059Z,13.25
2016-02-12T06:01:54.015Z,13.27
2016-02-12T06:02:54.003Z,13.15
2016-02-12T06:03:53.973Z,13.2
2016-02-12T06:04:53.945Z,13.15
2016-02-12T06:05:53.917Z,13.14
2016-02-12T06:06:53.920Z,13.18
2016-02-12T06:07:53.891Z,13.25
2016-02-12T06:08:53.847Z,13.21
2016-02-12T06:09:53.819Z,13.18
2016-02-12T06:10:53.793Z,13.18
2016-02-12T06:11:53.781Z,13.12
2016-02-12T06:12:53.752Z,13.2
2016-02-12T06:13:53.739Z,13.17
2016-02-12T06:14:53.726Z,13.15
2016-02-12T06:15:53.682Z,13.14
2016-02-12T06:16:53.669Z,13.12
2016-02-12T06:17:53.641Z,13.14
2016-02-12T06:18:53.613Z,13.22
2016-02-12T06:19:53.599Z,13.12
2016-02-12T06:20:53.587Z,13.14
2016-02-12T06:21:53.542Z,13.12
2016-02-12T06:22:53.515Z,13.15
2016-02-12T06:23:53.485Z,13.18
2016-02-12T06:24:53.488Z,13.22
2016-02-12T06:25:53.460Z,13.12
2016-02-12T06:26:53.416Z,13.22
2016-02-12T06:27:53.388Z,13.18
2016-02-12T06:28:53.375Z,13.21
2016-02-12T06:29:53.346Z,13.17
2016-02-12T06:30:53.333Z,13.15
2016-02-12T06:31:53.305Z,13.17
2016-02-12T06:32:53.293Z,13.18
2016-02-12T06:33:53.263Z,13.17
2016-02-12T06:34:53.221Z,13.17
2016-02-12T06:35:53.209Z,13.15
2016-02-12T06:36:53.196Z,13.21
2016-02-12T06:37:53.151Z,13.11
2016-02-12T06:38:53.139Z,13.21
2016-02-12T06:39:53.110Z,13.18
2016-02-12T06:40:53.082Z,13.17
2016-02-12T06:41:53.366Z,13.21
2016-02-12T06:42:53.025Z,13.17
2016-02-12T06:43:52.999Z,13.15
2016-02-12T06:44:52.986Z,13.15
2016-02-12T06:45:52.958Z,13.15
2016-02-12T06:46:53.101Z,13.22
2016-02-12T06:47:52.932Z,13.17
2016-02-12T06:48:52.888Z,13.12
2016-02-12T06:49:52.859Z,13.2
2016-02-12T06:50:52.846Z,13.17
2016-02-12T06:51:52.820Z,13.21
2016-02-12T06:52:52.791Z,13.17
2016-02-12T06:53:52.777Z,13.17
2016-02-12T06:54:52.749Z,13.15
2016-02-12T06:55:52.721Z,13.14
2016-02-12T06:56:52.693Z,13.15
2016-02-12T06:57:52.680Z,13.2
2016-02-12T06:58:52.651Z,13.21
2016-02-12T06:59:52.638Z,13.24
2016-02-12T07:00:52.610Z,13.15
2016-02-12T07:01:52.598Z,13.2
2016-02-12T07:02:52.585Z,13.18
2016-02-12T07:03:52.525Z,13.15
2016-02-12T07:04:52.544Z,13.21
2016-02-12T07:05:52.500Z,13.2
2016-02-12T07:06:52.456Z,13.14
2016-02-12T07:07:52.443Z,13.15
2016-02-12T07:08:52.414Z,13.07
2016-02-12T07:09:52.402Z,13.22
2016-02-12T07:10:52.373Z,13.2
2016-02-12T07:11:52.350Z,13.14
2016-02-12T07:12:52.336Z,13.21
2016-02-12T07:13:52.276Z,13.21
2016-02-12T07:14:52.280Z,13.3
2016-02-12T07:15:52.235Z,13.21
2016-02-12T07:16:52.221Z,13.21
2016-02-12T07:17:52.194Z,13.22
2016-02-12T07:18:52.165Z,13.22
2016-02-12T07:19:52.152Z,13.21
2016-02-12T07:20:52.123Z,13.21
2016-02-12T07:21:52.095Z,13.11
2016-02-12T07:22:52.082Z,13.21
2016-02-12T07:23:52.053Z,13.15
2016-02-12T07:24:52.040Z,13.12
2016-02-12T07:25:52.012Z,13.2
2016-02-12T07:26:51.967Z,13.14
2016-02-12T07:27:51.955Z,13.24
2016-02-12T07:28:51.942Z,13.15
2016-02-12T07:29:51.898Z,13.25
2016-02-12T07:30:51.915Z,13.15
2016-02-12T07:31:51.856Z,13.22
2016-02-12T07:32:51.843Z,13.21
2016-02-12T07:33:51.814Z,13.15
2016-02-12T07:34:51.787Z,13.25
2016-02-12T07:35:51.758Z,13.14
2016-02-12T07:36:51.760Z,13.22
2016-02-12T07:37:51.701Z,13.15
2016-02-12T07:38:51.720Z,13.18
2016-02-12T07:39:51.659Z,13.17
2016-02-12T07:40:51.632Z,13.24
2016-02-12T07:41:51.650Z,13.12
2016-02-12T07:42:51.590Z,13.21
2016-02-12T07:43:51.796Z,13.15
2016-02-12T07:44:51.549Z,13.3
2016-02-12T07:45:51.536Z,13.27
2016-02-12T07:46:51.508Z,13.27
2016-02-12T07:47:51.480Z,13.12
2016-02-12T07:48:51.514Z,13.21
2016-02-12T07:49:51.438Z,13.22
2016-02-12T07:50:51.411Z,13.27
2016-02-12T07:51:51.397Z,13.21
2016-02-12T07:52:51.368Z,13.22
2016-02-12T07:53:51.340Z,13.21
2016-02-12T07:54:51.297Z,13.22
2016-02-12T07:55:51.378Z,13.22
2016-02-12T07:56:51.286Z,13.27
2016-02-12T07:57:51.352Z,13.29
2016-02-12T07:58:51.448Z,13.22
2016-02-12T07:59:51.263Z,13.29
2016-02-12T08:00:51.188Z,13.22
2016-02-12T08:01:51.253Z,13.22
2016-02-12T08:02:51.287Z,13.24
2016-02-12T08:03:51.151Z,13.25
2016-02-12T08:04:51.154Z,13.24
2016-02-12T08:05:51.078Z,13.24
2016-02-12T08:06:51.065Z,13.25
2016-02-12T08:07:51.021Z,13.22
2016-02-12T08:08:50.993Z,13.25
2016-02-12T08:09:51.011Z,13.24
2016-02-12T08:10:51.029Z,13.17
2016-02-12T08:11:50.892Z,13.24
2016-02-12T08:12:50.941Z,13.27
2016-02-12T08:13:50.947Z,13.22
2016-02-12T08:14:50.888Z,13.25
2016-02-12T08:15:51.063Z,13.29
2016-02-12T08:16:50.816Z,13.2
2016-02-12T08:17:50.788Z,13.25
2016-02-12T08:18:50.852Z,13.24
2016-02-12T08:19:50.730Z,13.21
2016-02-12T08:20:50.813Z,13.29
2016-02-12T08:21:50.706Z,13.3
2016-02-12T08:22:50.677Z,13.32
2016-02-12T08:23:50.668Z,13.27
2016-02-12T08:24:50.655Z,13.29
2016-02-12T08:25:50.657Z,13.37
2016-02-12T08:26:50.613Z,13.33
2016-02-12T08:27:50.647Z,13.33
2016-02-12T08:28:50.570Z,13.29
2016-02-12T08:29:50.422Z,13.33
2016-02-12T08:30:50.588Z,13.36
2016-02-12T08:31:50.496Z,13.29
2016-02-12T08:32:50.453Z,13.27
2016-02-12T08:33:50.455Z,13.33
2016-02-12T08:34:50.334Z,13.33
2016-02-12T08:35:50.398Z,13.3
2016-02-12T08:36:50.417Z,13.37
2016-02-12T08:37:50.295Z,13.36
2016-02-12T08:38:50.312Z,13.46
2016-02-12T08:39:50.362Z,13.44
2016-02-12T08:40:50.589Z,13.49
2016-02-12T08:41:50.185Z,13.44
2016-02-12T08:42:50.172Z,13.49
2016-02-12T08:43:50.192Z,13.41
2016-02-12T08:44:50.194Z,13.44
2016-02-12T08:45:50.307Z,13.41
2016-02-12T08:46:50.138Z,13.41
2016-02-12T08:47:50.156Z,13.47
2016-02-12T08:48:50.160Z,13.52
2016-02-12T08:49:50.023Z,13.52
2016-02-12T08:50:50.010Z,13.47
2016-02-12T08:51:49.997Z,13.49
2016-02-12T08:52:49.953Z,13.4
2016-02-12T08:53:49.956Z,13.44
2016-02-12T08:54:49.927Z,13.36
2016-02-12T08:55:49.867Z,13.4
2016-02-12T08:56:49.901Z,13.37
2016-02-12T08:57:49.903Z,13.41
2016-02-12T08:58:49.798Z,13.44
2016-02-12T08:59:49.754Z,13.41
2016-02-12T09:00:49.756Z,13.41
2016-02-12T09:01:49.712Z,13.44
2016-02-12T09:02:49.715Z,13.41
2016-02-12T09:03:49.717Z,13.37
2016-02-12T09:04:49.725Z,13.51
2016-02-12T09:05:49.712Z,13.44
2016-02-12T09:06:49.669Z,13.33
2016-02-12T09:07:49.671Z,13.4
2016-02-12T09:08:49.627Z,13.4
2016-02-12T09:09:49.677Z,13.4
2016-02-12T09:10:49.569Z,13.41
2016-02-12T09:11:49.478Z,13.41
2016-02-12T09:12:49.531Z,13.43
2016-02-12T09:13:49.408Z,13.37
2016-02-12T09:14:49.411Z,13.49
2016-02-12T09:15:49.368Z,13.49
2016-02-12T09:16:49.199Z,13.47
2016-02-12T09:17:49.326Z,13.43
2016-02-12T09:18:49.157Z,13.44
2016-02-12T09:19:49.270Z,13.54
2016-02-12T09:20:49.273Z,13.52
2016-02-12T09:21:49.229Z,13.47
2016-02-12T09:22:49.216Z,13.46
2016-02-12T09:23:49.187Z,13.47
2016-02-12T09:24:49.161Z,13.46
2016-02-12T09:25:49.133Z,13.49
2016-02-12T09:26:49.104Z,13.43
2016-02-12T09:27:49.092Z,13.51
2016-02-12T09:28:49.063Z,13.43
2016-02-12T09:29:49.062Z,13.54
2016-02-12T09:30:48.991Z,13.52
2016-02-12T09:31:49.136Z,13.46
2016-02-12T09:32:48.924Z,13.47
2016-02-12T09:33:48.904Z,13.43
2016-02-12T09:34:48.864Z,13.51
2016-02-12T09:35:48.863Z,13.51
2016-02-12T09:36:48.799Z,13.58
2016-02-12T09:37:48.780Z,13.51
2016-02-12T09:38:48.747Z,13.52
2016-02-12T09:39:48.715Z,13.52
2016-02-12T09:40:48.684Z,13.51
2016-02-12T09:41:48.686Z,13.56
2016-02-12T09:42:48.938Z,13.51
2016-02-12T09:43:48.611Z,13.52
2016-02-12T09:44:48.597Z,13.47
2016-02-12T09:45:48.569Z,13.46
2016-02-12T09:46:48.555Z,13.54
2016-02-12T09:47:48.510Z,13.52
2016-02-12T09:48:48.824Z,13.52
2016-02-12T09:49:48.467Z,13.51
2016-02-12T09:50:48.454Z,13.61
2016-02-12T09:51:48.426Z,13.52
2016-02-12T09:52:48.384Z,13.51
2016-02-12T09:53:48.387Z,13.54
2016-02-12T09:54:48.359Z,13.51
2016-02-12T09:55:48.330Z,13.47
2016-02-12T09:56:48.302Z,13.49
2016-02-12T09:57:48.273Z,13.46
2016-02-12T09:58:48.244Z,13.55
2016-02-12T09:59:48.231Z,13.51
2016-02-12T10:00:48.203Z,13.58
2016-02-12T10:01:48.268Z,13.52
2016-02-12T10:02:55.237Z,13.55
2016-02-12T10:03:48.131Z,13.52
2016-02-12T10:04:48.102Z,13.44
2016-02-12T10:05:48.075Z,13.47
2016-02-12T10:06:47.921Z,13.52
2016-02-12T10:07:48.033Z,13.52
2016-02-12T10:08:48.021Z,13.56
2016-02-12T10:09:47.979Z,13.52
2016-02-12T10:10:47.809Z,13.46
2016-02-12T10:11:47.954Z,13.49
2016-02-12T10:12:47.909Z,13.54
2016-02-12T10:13:47.884Z,13.49
2016-02-12T10:14:47.887Z,13.55
2016-02-12T10:15:47.858Z,13.63
2016-02-12T10:16:47.814Z,13.51
2016-02-12T10:17:47.802Z,13.51
2016-02-12T10:18:47.993Z,13.52
2016-02-12T10:19:47.745Z,13.52
2016-02-12T10:20:47.717Z,13.55
2016-02-12T10:21:47.703Z,13.59
2016-02-12T10:22:47.691Z,13.56
2016-02-12T10:23:47.490Z,13.56
2016-02-12T10:24:47.618Z,13.56
2016-02-12T10:25:47.606Z,13.54
2016-02-12T10:26:47.592Z,13.58
2016-02-12T10:27:47.566Z,13.63
2016-02-12T10:28:47.771Z,13.59
2016-02-12T10:29:47.508Z,13.59
2016-02-12T10:30:47.480Z,13.59
2016-02-12T10:31:47.482Z,13.59
2016-02-12T10:32:47.470Z,13.63
2016-02-12T10:33:47.551Z,13.58
2016-02-12T10:34:47.396Z,13.56
2016-02-12T10:35:47.369Z,13.59
2016-02-12T10:36:47.372Z,13.58
2016-02-12T10:37:47.313Z,13.56
2016-02-12T10:38:47.301Z,13.59
2016-02-12T10:39:47.273Z,13.55
2016-02-12T10:40:47.243Z,13.52
2016-02-12T10:41:47.215Z,13.56
2016-02-12T10:42:47.218Z,13.58
2016-02-12T10:43:47.179Z,13.59
2016-02-12T10:44:47.150Z,13.56
2016-02-12T10:45:47.137Z,13.59
2016-02-12T10:46:47.124Z,13.59
2016-02-12T10:47:47.071Z,13.61
2016-02-12T10:48:47.057Z,13.59
2016-02-12T10:49:47.028Z,13.56
2016-02-12T10:50:47.017Z,13.61
2016-02-12T10:51:46.987Z,13.61
2016-02-12T10:52:46.975Z,13.52
2016-02-12T10:53:46.962Z,13.58
2016-02-12T10:54:46.917Z,13.62
2016-02-12T10:55:46.905Z,13.61
2016-02-12T10:56:46.861Z,13.62
2016-02-12T10:57:46.847Z,13.65
2016-02-12T10:58:46.834Z,13.63
2016-02-12T10:59:46.806Z,13.65
2016-02-12T11:00:46.777Z,13.63
2016-02-12T11:01:46.749Z,13.59
2016-02-12T11:02:46.752Z,13.62
2016-02-12T11:03:46.707Z,13.63
2016-02-12T11:04:46.696Z,13.62
2016-02-12T11:05:46.667Z,13.65
2016-02-12T11:06:46.638Z,13.67
2016-02-12T11:07:46.625Z,13.69
2016-02-12T11:08:46.596Z,13.73
2016-02-12T11:09:46.583Z,13.71
2016-02-12T11:10:46.555Z,13.77
2016-02-12T11:11:46.527Z,13.69
2016-02-12T11:12:46.497Z,13.79
2016-02-12T11:13:46.487Z,13.77
2016-02-12T11:14:46.460Z,13.79
2016-02-12T11:15:46.431Z,13.76
2016-02-12T11:16:46.404Z,13.76
2016-02-12T11:17:46.375Z,13.73
2016-02-12T11:18:46.362Z,13.74
2016-02-12T11:19:46.317Z,13.76
2016-02-12T11:20:46.306Z,13.77
2016-02-12T11:21:46.277Z,13.79
2016-02-12T11:22:46.265Z,13.81
2016-02-12T11:23:46.236Z,13.71
2016-02-12T11:24:46.207Z,13.73
2016-02-12T11:25:46.476Z,13.76
2016-02-12T11:26:46.166Z,13.76
2016-02-12T11:27:46.153Z,13.73
2016-02-12T11:28:46.124Z,13.77
2016-02-12T11:29:45.944Z,13.7
2016-02-12T11:30:46.228Z,13.88
2016-02-12T11:31:46.059Z,13.84
2016-02-12T11:32:46.047Z,13.87
2016-02-12T11:33:46.017Z,13.83
2016-02-12T11:34:45.989Z,13.87
2016-02-12T11:35:45.976Z,13.8
2016-02-12T11:36:45.947Z,13.84
2016-02-12T11:37:45.919Z,13.76
2016-02-12T11:38:45.891Z,13.87
2016-02-12T11:39:45.864Z,13.87
2016-02-12T11:40:45.899Z,13.88
2016-02-12T11:41:45.839Z,13.84
2016-02-12T11:42:45.811Z,13.91
2016-02-12T11:43:45.782Z,13.89
2016-02-12T11:44:45.757Z,13.88
2016-02-12T11:45:45.729Z,13.94
2016-02-12T11:46:45.748Z,13.89
2016-02-12T11:47:45.688Z,13.89
2016-02-12T11:48:45.660Z,13.91
2016-02-12T11:49:45.631Z,13.91
2016-02-12T11:50:45.619Z,13.95
2016-02-12T11:51:45.809Z,13.96
2016-02-12T11:52:45.561Z,13.95
2016-02-12T11:53:45.549Z,13.98
2016-02-12T11:54:45.536Z,13.98
2016-02-12T11:55:45.367Z,13.91
2016-02-12T11:56:45.481Z,14.01
2016-02-12T11:57:45.468Z,14.02
2016-02-12T11:58:45.424Z,14.02
2016-02-12T11:59:45.412Z,14.06
2016-02-12T12:00:45.400Z,14.04
2016-02-12T12:01:45.387Z,14.02
2016-02-12T12:02:45.343Z,14.1
2016-02-12T12:03:45.330Z,14.2
2016-02-12T12:04:45.317Z,14.24
2016-02-12T12:05:45.290Z,14.24
2016-02-12T12:06:45.292Z,14.21
2016-02-12T12:07:45.233Z,14.24
2016-02-12T12:08:45.236Z,14.27
2016-02-12T12:09:45.192Z,14.25
2016-02-12T12:10:45.163Z,14.37
2016-02-12T12:11:45.151Z,14.25
2016-02-12T12:12:45.121Z,14.35
2016-02-12T12:13:45.093Z,14.34
2016-02-12T12:14:45.080Z,14.37
2016-02-12T12:15:45.052Z,14.42
2016-02-12T12:16:45.042Z,14.49
2016-02-12T12:17:45.044Z,14.47
2016-02-12T12:18:44.984Z,14.54
2016-02-12T12:19:44.971Z,14.61
2016-02-12T12:20:44.928Z,14.64
2016-02-12T12:21:44.945Z,14.61
2016-02-12T12:22:44.886Z,14.69
2016-02-12T12:23:44.873Z,14.67
2016-02-12T12:24:44.859Z,14.67
2016-02-12T12:25:44.832Z,14.75
2016-02-12T12:26:44.818Z,14.74
2016-02-12T12:27:44.790Z,14.78
2016-02-12T12:28:44.778Z,14.75
2016-02-12T12:29:44.733Z,14.84
2016-02-12T12:30:44.705Z,14.81
2016-02-12T12:31:44.693Z,14.94
2016-02-12T12:32:44.898Z,14.95
2016-02-12T12:33:44.668Z,15.01
2016-02-12T12:34:44.638Z,14.99
2016-02-12T12:35:44.610Z,14.93
2016-02-12T12:36:44.597Z,14.88
2016-02-12T12:37:44.585Z,14.81
2016-02-12T12:38:44.540Z,14.84
2016-02-12T12:39:44.527Z,14.94
2016-02-12T12:40:44.514Z,15.05
2016-02-12T12:41:44.490Z,14.98
2016-02-12T12:42:44.318Z,14.95
2016-02-12T12:43:44.431Z,14.9
2016-02-12T12:44:44.418Z,14.9
2016-02-12T12:45:44.390Z,14.91
2016-02-12T12:46:44.409Z,14.93
2016-02-12T12:47:44.349Z,14.91
2016-02-12T12:48:44.320Z,14.91
2016-02-12T12:49:44.323Z,14.9
2016-02-12T12:50:44.279Z,14.98
2016-02-12T12:51:44.298Z,14.91
2016-02-12T12:52:44.238Z,14.93
2016-02-12T12:53:44.225Z,14.81